Time;durP1;ratioP1;P1;durP2;ratioP2;P2;SDS_P1;SDS_P2;PMS_P1;PMS_P2;Temp;Humidity;BMP_temperature;BMP_pressure;BME280_temperature;BME280_humidity;BME280_pressure;Samples;Min_cycle;Max_cycle;Signal;HPM_P1;HPM_P2
2022/08/07 00:01:12;;;;;;;0.40;0.40;;;11.60;99.90;;;;;;4964087;28;20042;-80
2022/08/07 00:03:38;;;;;;;0.40;0.40;;;11.50;99.90;;;;;;4958923;28;20097;-80
2022/08/07 00:06:05;;;;;;;0.40;0.40;;;11.50;99.90;;;;;;4953589;28;20196;-80
2022/08/07 00:08:31;;;;;;;0.40;0.40;;;11.40;99.90;;;;;;4956075;28;20046;-80
2022/08/07 00:10:57;;;;;;;0.40;0.40;;;11.50;99.90;;;;;;4961350;28;20054;-80
2022/08/07 00:13:23;;;;;;;0.40;0.40;;;11.40;99.90;;;;;;4951754;28;20092;-80
2022/08/07 00:15:50;;;;;;;0.40;0.40;;;11.40;99.90;;;;;;4963197;28;20061;-80
2022/08/07 00:18:22;;;;;;;0.50;0.50;;;11.30;99.90;;;;;;4974777;28;20062;-80
2022/08/07 00:20:50;;;;;;;0.52;0.52;;;11.30;99.90;;;;;;4978505;28;20078;-80
2022/08/07 00:23:17;;;;;;;0.40;0.40;;;11.20;99.90;;;;;;4981195;28;20046;-80
2022/08/07 00:25:43;;;;;;;0.40;0.40;;;11.20;99.90;;;;;;4978998;28;20077;-80
2022/08/07 00:28:09;;;;;;;0.40;0.40;;;11.30;99.90;;;;;;4972817;28;20524;-81
2022/08/07 00:30:34;;;;;;;0.40;0.40;;;11.20;99.90;;;;;;4961677;28;20054;-81
2022/08/07 00:33:00;;;;;;;0.40;0.40;;;11.10;99.90;;;;;;4951497;28;20049;-81
2022/08/07 00:35:27;;;;;;;0.60;0.60;;;11.00;99.90;;;;;;4961984;28;20050;-80
2022/08/07 00:37:53;;;;;;;0.40;0.40;;;11.10;99.90;;;;;;4967718;28;20069;-80
2022/08/07 00:40:20;;;;;;;0.40;0.40;;;11.10;99.90;;;;;;4968574;28;20161;-81
2022/08/07 00:42:46;;;;;;;0.40;0.40;;;11.10;99.90;;;;;;4967086;28;20085;-80
2022/08/07 00:45:12;;;;;;;0.40;0.40;;;11.10;99.90;;;;;;4966766;28;20157;-80
2022/08/07 00:47:38;;;;;;;0.40;0.40;;;11.10;99.90;;;;;;4964876;28;20509;-80
2022/08/07 00:50:05;;;;;;;0.40;0.40;;;11.10;99.90;;;;;;4966745;28;20909;-80
2022/08/07 00:52:31;;;;;;;0.40;0.40;;;11.10;99.90;;;;;;4967416;28;20537;-80
2022/08/07 00:54:57;;;;;;;0.40;0.40;;;11.10;99.90;;;;;;4964351;28;20051;-80
2022/08/07 00:57:24;;;;;;;0.40;0.40;;;11.10;99.90;;;;;;4985043;28;20139;-80
2022/08/07 00:59:50;;;;;;;0.40;0.40;;;11.10;99.90;;;;;;4971564;28;20058;-80
2022/08/07 01:02:16;;;;;;;0.40;0.40;;;11.10;99.90;;;;;;4965331;28;20125;-80
2022/08/07 01:04:42;;;;;;;0.40;0.40;;;11.00;99.90;;;;;;4964710;28;20054;-80
2022/08/07 01:07:08;;;;;;;0.40;0.40;;;11.10;99.90;;;;;;4961694;28;20133;-80
2022/08/07 01:09:34;;;;;;;0.40;0.40;;;11.10;99.90;;;;;;4966624;28;20207;-80
2022/08/07 01:12:00;;;;;;;0.40;0.40;;;11.00;99.90;;;;;;4975515;28;20101;-80
2022/08/07 01:14:26;;;;;;;0.40;0.40;;;11.00;99.90;;;;;;4966457;28;20105;-80
2022/08/07 01:16:53;;;;;;;0.40;0.40;;;11.10;99.90;;;;;;4964395;28;21143;-80
2022/08/07 01:19:21;;;;;;;0.40;0.40;;;11.10;99.90;;;;;;4963830;28;20113;-80
2022/08/07 01:21:50;;;;;;;0.68;0.68;;;11.10;99.90;;;;;;4963272;28;20058;-80
2022/08/07 01:24:17;;;;;;;0.50;0.50;;;11.10;99.90;;;;;;4960446;28;20058;-80
2022/08/07 01:26:43;;;;;;;0.40;0.40;;;11.10;99.90;;;;;;4975676;28;20038;-80
2022/08/07 01:29:12;;;;;;;0.40;0.40;;;11.10;99.90;;;;;;4966327;28;20503;-80
2022/08/07 01:31:39;;;;;;;0.52;0.52;;;11.00;99.90;;;;;;4967798;28;20556;-80
2022/08/07 01:34:05;;;;;;;0.40;0.40;;;11.00;99.90;;;;;;4965683;28;20096;-80
2022/08/07 01:36:31;;;;;;;0.40;0.40;;;11.00;99.90;;;;;;4967371;28;20497;-80
2022/08/07 01:38:57;;;;;;;0.40;0.40;;;10.90;99.90;;;;;;4963248;28;20185;-80
2022/08/07 01:41:25;;;;;;;0.40;0.40;;;10.90;99.90;;;;;;4968538;28;20057;-80
2022/08/07 01:43:51;;;;;;;0.40;0.40;;;10.80;99.90;;;;;;4950624;28;20060;-80
2022/08/07 01:46:18;;;;;;;4.90;0.60;;;10.80;99.90;;;;;;4966982;28;20212;-80
2022/08/07 01:48:46;;;;;;;0.40;0.40;;;10.80;99.90;;;;;;4948784;28;20068;-80
2022/08/07 01:51:20;;;;;;;0.50;0.50;;;10.80;99.90;;;;;;4961996;28;20050;-80
2022/08/07 01:53:52;;;;;;;0.40;0.40;;;10.80;99.90;;;;;;4966025;28;20767;-80
2022/08/07 01:56:50;;;;;;;0.40;0.40;;;10.80;99.90;;;;;;4957826;28;20188;-80
2022/08/07 01:59:31;;;;;;;0.40;0.40;;;10.80;99.90;;;;;;4973459;28;20679;-80
2022/08/07 02:02:05;;;;;;;0.40;0.40;;;10.80;99.90;;;;;;4964557;28;20057;-80
2022/08/07 02:04:48;;;;;;;0.40;0.40;;;10.80;99.90;;;;;;4962913;28;20093;-80
2022/08/07 02:07:18;;;;;;;0.40;0.40;;;10.70;99.90;;;;;;4965359;28;20053;-80
2022/08/07 02:09:47;;;;;;;0.40;0.40;;;10.70;99.90;;;;;;4982581;28;20054;-80
2022/08/07 02:12:17;;;;;;;0.50;0.50;;;10.60;99.90;;;;;;4964392;28;20686;-80
2022/08/07 02:14:46;;;;;;;0.40;0.40;;;10.60;99.90;;;;;;4962360;28;20042;-80
2022/08/07 02:17:14;;;;;;;0.40;0.40;;;10.50;99.90;;;;;;4971320;28;20121;-80
2022/08/07 02:19:45;;;;;;;0.50;0.50;;;10.40;99.90;;;;;;4975859;28;20054;-80
2022/08/07 02:22:13;;;;;;;0.40;0.40;;;10.50;99.90;;;;;;4992577;28;20528;-80
2022/08/07 02:24:43;;;;;;;0.50;0.50;;;10.50;99.90;;;;;;4982150;28;20045;-80
2022/08/07 02:27:11;;;;;;;0.40;0.40;;;10.40;99.90;;;;;;4975203;28;20058;-80
2022/08/07 02:29:39;;;;;;;0.40;0.40;;;10.40;99.90;;;;;;4976857;28;20085;-80
2022/08/07 02:32:06;;;;;;;0.40;0.40;;;10.40;99.90;;;;;;4978680;28;20050;-80
2022/08/07 02:34:33;;;;;;;0.40;0.40;;;10.40;99.90;;;;;;4976373;28;20391;-80
2022/08/07 02:37:02;;;;;;;0.40;0.40;;;10.40;99.90;;;;;;4973663;28;20049;-80
2022/08/07 02:39:29;;;;;;;0.40;0.40;;;10.40;99.90;;;;;;4970616;28;20077;-79
2022/08/07 02:41:56;;;;;;;0.40;0.40;;;10.40;99.90;;;;;;4974555;28;20157;-80
2022/08/07 02:44:24;;;;;;;0.50;0.50;;;10.40;99.90;;;;;;4972749;28;20061;-80
2022/08/07 02:46:53;;;;;;;0.40;0.40;;;10.30;99.90;;;;;;4972116;28;20065;-80
2022/08/07 02:49:19;;;;;;;0.45;0.45;;;10.20;99.90;;;;;;4961907;28;20123;-80
2022/08/07 02:51:46;;;;;;;0.40;0.40;;;10.30;99.90;;;;;;4975799;28;20046;-80
2022/08/07 02:54:15;;;;;;;0.50;0.50;;;10.20;99.90;;;;;;4956576;28;20151;-80
2022/08/07 02:56:42;;;;;;;0.40;0.40;;;10.20;99.90;;;;;;4972392;28;20054;-80
2022/08/07 02:59:13;;;;;;;0.50;0.50;;;10.20;99.90;;;;;;4974858;28;20046;-79
2022/08/07 03:01:41;;;;;;;0.50;0.50;;;10.20;99.90;;;;;;4984868;28;20068;-80
2022/08/07 03:04:09;;;;;;;0.40;0.40;;;10.20;99.90;;;;;;4971414;28;20061;-79
2022/08/07 03:06:36;;;;;;;0.40;0.40;;;10.20;99.90;;;;;;4970500;28;20103;-80
2022/08/07 03:09:04;;;;;;;0.50;0.50;;;10.10;99.90;;;;;;4974417;28;20050;-80
2022/08/07 03:11:31;;;;;;;0.40;0.40;;;10.10;99.90;;;;;;4970535;28;20051;-79
2022/08/07 03:13:58;;;;;;;0.80;0.80;;;10.20;99.90;;;;;;4974322;28;20061;-80
2022/08/07 03:16:24;;;;;;;0.50;0.50;;;10.10;99.90;;;;;;4989326;28;20046;-79
2022/08/07 03:18:51;;;;;;;0.50;0.50;;;10.10;99.90;;;;;;4975327;28;20057;-79
2022/08/07 03:21:17;;;;;;;0.50;0.50;;;10.10;99.90;;;;;;4975115;28;20056;-79
2022/08/07 03:23:44;;;;;;;0.40;0.40;;;10.10;99.90;;;;;;4973096;28;20077;-80
2022/08/07 03:26:12;;;;;;;0.40;0.40;;;10.00;99.90;;;;;;4975138;28;20049;-79
2022/08/07 03:28:51;;;;;;;0.40;0.40;;;10.00;99.90;;;;;;4972846;28;20050;-79
2022/08/07 03:31:17;;;;;;;0.50;0.50;;;10.00;99.90;;;;;;4974306;28;20119;-80
2022/08/07 03:33:48;;;;;;;0.40;0.40;;;10.00;99.90;;;;;;4971950;28;20065;-80
2022/08/07 03:36:15;;;;;;;0.50;0.50;;;9.90;99.90;;;;;;4971908;28;20056;-79
2022/08/07 03:38:42;;;;;;;0.47;0.47;;;9.90;99.90;;;;;;4971398;28;20085;-80
2022/08/07 03:41:08;;;;;;;0.50;0.50;;;9.90;99.90;;;;;;4971427;28;20284;-80
2022/08/07 03:43:36;;;;;;;0.50;0.50;;;9.80;99.90;;;;;;4975087;28;20046;-79
2022/08/07 03:46:03;;;;;;;0.40;0.40;;;9.80;99.90;;;;;;4971667;28;20057;-79
2022/08/07 03:48:32;;;;;;;0.73;0.73;;;9.80;99.90;;;;;;4969317;28;20203;-80
2022/08/07 03:50:59;;;;;;;0.50;0.50;;;9.80;99.90;;;;;;4973695;28;21710;-80
2022/08/07 03:53:25;;;;;;;0.50;0.50;;;9.70;99.90;;;;;;4969932;28;20057;-80
2022/08/07 03:55:52;;;;;;;0.43;0.43;;;9.70;99.90;;;;;;4973049;28;20780;-79
2022/08/07 03:58:20;;;;;;;0.40;0.40;;;9.70;99.90;;;;;;4971411;28;20093;-80
2022/08/07 04:00:48;;;;;;;0.50;0.50;;;9.70;99.90;;;;;;4982297;28;20128;-79
2022/08/07 04:03:15;;;;;;;0.55;0.50;;;9.70;99.90;;;;;;4974955;28;20046;-80
2022/08/07 04:05:41;;;;;;;0.43;0.43;;;9.80;99.90;;;;;;4971908;28;20061;-80
2022/08/07 04:08:10;;;;;;;0.40;0.40;;;9.70;99.90;;;;;;4971853;28;20058;-79
2022/08/07 04:10:36;;;;;;;0.40;0.40;;;9.80;99.90;;;;;;4970297;28;20058;-79
2022/08/07 04:13:02;;;;;;;0.40;0.40;;;9.90;99.90;;;;;;4972787;28;20046;-79
2022/08/07 04:15:29;;;;;;;0.40;0.40;;;9.90;99.90;;;;;;4970660;28;20054;-79
2022/08/07 04:17:55;;;;;;;0.40;0.40;;;10.00;99.90;;;;;;4973357;28;20054;-79
2022/08/07 04:20:21;;;;;;;0.50;0.50;;;10.00;99.90;;;;;;4970810;28;20112;-79
2022/08/07 04:22:48;;;;;;;0.50;0.50;;;10.00;99.90;;;;;;4975101;28;20042;-79
2022/08/07 04:25:16;;;;;;;0.40;0.40;;;10.00;99.90;;;;;;4973287;28;20054;-79
2022/08/07 04:27:42;;;;;;;0.47;0.47;;;10.00;99.90;;;;;;4971715;28;20065;-79
2022/08/07 04:30:08;;;;;;;0.50;0.50;;;10.00;99.90;;;;;;4973626;28;20046;-79
2022/08/07 04:32:35;;;;;;;0.40;0.40;;;10.00;99.90;;;;;;4978190;28;20042;-79
2022/08/07 04:35:06;;;;;;;0.50;0.50;;;10.00;99.90;;;;;;4975152;28;20080;-79
2022/08/07 04:37:34;;;;;;;0.50;0.50;;;10.00;99.90;;;;;;4957166;28;20053;-78
2022/08/07 04:40:03;;;;;;;0.55;0.52;;;10.00;99.90;;;;;;4983646;28;20078;-79
2022/08/07 04:42:30;;;;;;;0.60;0.60;;;10.10;99.90;;;;;;4974508;28;20046;-79
2022/08/07 04:44:59;;;;;;;0.50;0.50;;;10.10;99.90;;;;;;4977450;28;20060;-79
2022/08/07 04:47:36;;;;;;;0.50;0.50;;;10.10;99.90;;;;;;4977658;28;20081;-79
2022/08/07 04:50:10;;;;;;;0.50;0.50;;;10.20;99.90;;;;;;4976481;28;20097;-79
2022/08/07 04:53:19;;;;;;;0.50;0.50;;;10.30;99.90;;;;;;4975371;28;20057;-79
2022/08/07 04:55:53;;;;;;;0.40;0.40;;;10.40;99.90;;;;;;4971461;28;20049;-79
2022/08/07 04:58:33;;;;;;;0.40;0.40;;;10.60;99.90;;;;;;4974976;28;20104;-79
2022/08/07 05:01:13;;;;;;;0.50;0.50;;;10.60;99.90;;;;;;4972839;28;20062;-79
2022/08/07 05:03:48;;;;;;;0.50;0.50;;;10.90;99.90;;;;;;4976449;28;20149;-79
2022/08/07 05:06:40;;;;;;;0.40;0.40;;;10.80;99.90;;;;;;4976359;28;20417;-79
2022/08/07 05:09:52;;;;;;;0.50;0.50;;;10.90;99.90;;;;;;4972950;28;20046;-79
2022/08/07 05:12:25;;;;;;;0.40;0.40;;;11.40;99.90;;;;;;4968604;28;20047;-80
2022/08/07 05:14:53;;;;;;;0.50;0.50;;;13.40;99.90;;;;;;4975457;28;20069;-80
2022/08/07 05:17:22;;;;;;;0.40;0.40;;;14.80;99.90;;;;;;4975066;28;20108;-79
2022/08/07 05:19:50;;;;;;;0.40;0.40;;;15.60;99.90;;;;;;4980860;28;20054;-79
2022/08/07 05:22:19;;;;;;;0.50;0.50;;;16.30;99.90;;;;;;4975508;28;20088;-79
2022/08/07 05:24:46;;;;;;;0.40;0.40;;;16.90;99.90;;;;;;4976293;28;20057;-80
2022/08/07 05:27:14;;;;;;;0.40;0.40;;;17.60;99.90;;;;;;4973189;28;20065;-80
2022/08/07 05:29:43;;;;;;;0.30;0.30;;;18.10;99.90;;;;;;4993137;28;20140;-79
2022/08/07 05:32:09;;;;;;;0.30;0.30;;;18.70;99.90;;;;;;4975264;28;20631;-80
2022/08/07 05:34:36;;;;;;;0.40;0.40;;;18.90;99.90;;;;;;4974914;28;20092;-80
2022/08/07 05:37:04;;;;;;;0.30;0.30;;;19.30;99.90;;;;;;4979269;28;20695;-79
2022/08/07 05:39:30;;;;;;;0.52;0.52;;;20.00;99.90;;;;;;4975148;28;20352;-80
2022/08/07 05:41:56;;;;;;;0.30;0.30;;;20.40;99.90;;;;;;4967831;28;20082;-80
2022/08/07 05:44:23;;;;;;;1.27;1.10;;;20.30;99.90;;;;;;4977498;28;20050;-79
2022/08/07 05:46:49;;;;;;;0.30;0.30;;;20.70;99.90;;;;;;4974398;28;20053;-79
2022/08/07 05:49:16;;;;;;;0.30;0.30;;;21.10;99.90;;;;;;4973025;28;20082;-79
2022/08/07 05:51:44;;;;;;;1.23;0.50;;;21.40;99.90;;;;;;4972039;28;20050;-80
2022/08/07 05:54:11;;;;;;;0.30;0.30;;;20.80;99.90;;;;;;4974703;28;20064;-81
2022/08/07 05:56:38;;;;;;;0.40;0.40;;;19.10;99.90;;;;;;4973871;28;20061;-80
2022/08/07 05:59:08;;;;;;;0.40;0.40;;;18.50;99.90;;;;;;4977813;28;20163;-80
2022/08/07 06:01:38;;;;;;;0.43;0.43;;;18.10;99.90;;;;;;4974665;28;20066;-81
2022/08/07 06:04:05;;;;;;;0.32;0.32;;;18.10;99.90;;;;;;4975939;28;20046;-81
2022/08/07 06:06:33;;;;;;;0.30;0.30;;;18.50;99.90;;;;;;4975159;28;20058;-81
2022/08/07 06:09:00;;;;;;;0.30;0.30;;;18.60;99.90;;;;;;4972734;28;20584;-80
2022/08/07 06:11:26;;;;;;;0.50;0.50;;;18.30;99.90;;;;;;4971951;28;20497;-80
2022/08/07 06:13:52;;;;;;;0.30;0.30;;;18.10;99.90;;;;;;4975740;28;20054;-81
2022/08/07 06:16:21;;;;;;;0.40;0.40;;;18.20;99.90;;;;;;4975361;28;20056;-81
2022/08/07 06:18:48;;;;;;;0.35;0.35;;;17.90;99.90;;;;;;4973237;28;20046;-81
2022/08/07 06:21:15;;;;;;;0.30;0.30;;;17.20;99.90;;;;;;4990716;28;20662;-82
2022/08/07 06:23:42;;;;;;;0.30;0.30;;;17.80;99.90;;;;;;4983912;28;20651;-80
2022/08/07 06:26:12;;;;;;;0.30;0.30;;;18.50;99.90;;;;;;4975359;28;20331;-81
2022/08/07 06:28:51;;;;;;;0.30;0.30;;;18.80;99.90;;;;;;4976690;28;20269;-81
2022/08/07 06:31:17;;;;;;;0.35;0.35;;;18.50;99.90;;;;;;4974138;28;20045;-81
2022/08/07 06:33:45;;;;;;;0.30;0.30;;;18.60;99.90;;;;;;4972461;28;20483;-81
2022/08/07 06:36:11;;;;;;;0.30;0.30;;;19.00;99.90;;;;;;4972369;28;20046;-81
2022/08/07 06:38:37;;;;;;;0.30;0.30;;;18.60;99.90;;;;;;4972230;28;20141;-81
2022/08/07 06:41:06;;;;;;;0.47;0.47;;;19.10;99.90;;;;;;4973904;28;20089;-81
2022/08/07 06:43:35;;;;;;;0.30;0.30;;;19.40;99.90;;;;;;4972278;28;21266;-81
2022/08/07 06:46:02;;;;;;;0.30;0.30;;;18.80;99.90;;;;;;4972158;28;20050;-81
2022/08/07 06:48:29;;;;;;;0.38;0.38;;;19.50;99.90;;;;;;4971902;28;20057;-82
2022/08/07 06:51:01;;;;;;;0.40;0.40;;;19.80;99.90;;;;;;4973334;28;20538;-81
2022/08/07 06:53:27;;;;;;;0.30;0.30;;;20.30;99.90;;;;;;4971343;28;20065;-81
2022/08/07 06:55:56;;;;;;;0.30;0.30;;;20.60;99.90;;;;;;4968849;28;20092;-82
2022/08/07 06:58:22;;;;;;;0.30;0.30;;;20.70;99.90;;;;;;4973821;28;20563;-82
2022/08/07 07:00:49;;;;;;;0.30;0.30;;;20.10;99.90;;;;;;4969010;28;20481;-81
2022/08/07 07:03:16;;;;;;;0.30;0.30;;;20.70;99.90;;;;;;4974084;28;20053;-82
2022/08/07 07:05:42;;;;;;;0.30;0.30;;;20.80;99.90;;;;;;4957213;28;20049;-82
2022/08/07 07:08:11;;;;;;;0.30;0.30;;;20.80;99.90;;;;;;4957897;28;20591;-81
2022/08/07 07:10:37;;;;;;;0.40;0.40;;;20.30;99.90;;;;;;4973695;28;20601;-80
2022/08/07 07:13:13;;;;;;;0.30;0.30;;;20.00;99.90;;;;;;4990060;28;20074;-81
2022/08/07 07:15:44;;;;;;;0.30;0.30;;;20.50;99.90;;;;;;4974109;28;20746;-81
2022/08/07 07:18:20;;;;;;;0.30;0.30;;;20.50;99.90;;;;;;4973702;28;20165;-81
2022/08/07 07:20:56;;;;;;;0.30;0.30;;;21.00;99.90;;;;;;4973796;28;20054;-81
2022/08/07 07:23:23;;;;;;;0.30;0.30;;;21.20;99.90;;;;;;4981953;28;20062;-80
2022/08/07 07:25:53;;;;;;;0.40;0.40;;;20.70;99.90;;;;;;4974300;28;20414;-80
2022/08/07 07:28:31;;;;;;;0.30;0.30;;;20.80;99.90;;;;;;4972989;28;20053;-80
2022/08/07 07:31:02;;;;;;;0.30;0.30;;;20.70;99.90;;;;;;4973673;28;20084;-81
2022/08/07 07:33:30;;;;;;;0.30;0.30;;;20.90;99.90;;;;;;4970648;28;20057;-80
2022/08/07 07:35:57;;;;;;;0.40;0.40;;;21.00;99.90;;;;;;4971936;28;20042;-80
2022/08/07 07:38:26;;;;;;;0.30;0.30;;;21.00;99.90;;;;;;4973480;28;20901;-81
2022/08/07 07:40:57;;;;;;;0.30;0.30;;;20.90;99.90;;;;;;4970969;28;20191;-80
2022/08/07 07:43:26;;;;;;;0.30;0.30;;;21.00;99.90;;;;;;4973963;28;20546;-80
2022/08/07 07:45:53;;;;;;;0.30;0.30;;;21.20;99.90;;;;;;4975796;28;20714;-80
2022/08/07 07:48:23;;;;;;;0.30;0.30;;;21.00;99.90;;;;;;4975153;28;20054;-80
2022/08/07 07:50:52;;;;;;;0.30;0.30;;;20.70;99.90;;;;;;4972884;28;20058;-80
2022/08/07 07:53:20;;;;;;;0.40;0.40;;;21.10;99.90;;;;;;4967193;28;20038;-81
2022/08/07 07:55:46;;;;;;;0.30;0.30;;;21.30;99.90;;;;;;4957178;28;20133;-81
2022/08/07 07:58:13;;;;;;;0.30;0.30;;;21.40;99.90;;;;;;4952474;28;20062;-81
2022/08/07 08:00:42;;;;;;;0.30;0.30;;;21.20;99.90;;;;;;4954734;28;20062;-81
2022/08/07 08:03:14;;;;;;;0.30;0.30;;;21.10;99.90;;;;;;4974178;28;20050;-81
2022/08/07 08:05:41;;;;;;;0.30;0.30;;;21.20;99.90;;;;;;4971886;28;20085;-81
2022/08/07 08:08:15;;;;;;;0.30;0.30;;;21.40;99.90;;;;;;4976987;28;20077;-81
2022/08/07 08:10:41;;;;;;;0.93;0.40;;;21.40;99.90;;;;;;4989274;28;20053;-82
2022/08/07 08:13:09;;;;;;;0.30;0.30;;;21.80;99.90;;;;;;4978278;28;20046;-81
2022/08/07 08:15:38;;;;;;;0.30;0.30;;;22.00;99.90;;;;;;4975994;28;20054;-81
2022/08/07 08:18:10;;;;;;;0.30;0.30;;;22.30;99.90;;;;;;4977550;28;20100;-80
2022/08/07 08:20:38;;;;;;;0.30;0.30;;;22.30;99.90;;;;;;4979104;28;20033;-82
2022/08/07 08:28:43;;;;;;;0.50;0.50;;;22.10;99.90;;;;;;4975665;28;20054;-81
2022/08/07 08:31:13;;;;;;;0.30;0.30;;;21.80;99.90;;;;;;4979289;28;20061;-80
2022/08/07 08:33:41;;;;;;;0.30;0.30;;;22.20;99.90;;;;;;4961069;28;20046;-81
2022/08/07 08:36:09;;;;;;;0.22;0.22;;;22.40;99.90;;;;;;4963779;28;20147;-80
2022/08/07 08:38:38;;;;;;;0.30;0.30;;;22.30;99.90;;;;;;4975983;28;20153;-82
2022/08/07 08:41:16;;;;;;;0.30;0.30;;;22.40;99.90;;;;;;4977975;28;20056;-82
2022/08/07 08:44:20;;;;;;;0.30;0.30;;;22.10;99.90;;;;;;4980336;28;20046;-80
2022/08/07 08:46:49;;;;;;;0.30;0.30;;;22.30;99.90;;;;;;4969527;28;20057;-81
2022/08/07 08:50:09;;;;;;;0.30;0.30;;;22.30;99.90;;;;;;4975323;28;20053;-80
2022/08/07 08:52:47;;;;;;;0.30;0.30;;;22.50;99.90;;;;;;4938005;28;20570;-80
2022/08/07 08:55:24;;;;;;;0.30;0.30;;;22.70;99.90;;;;;;4978188;28;20967;-81
2022/08/07 08:58:09;;;;;;;0.20;0.20;;;22.80;99.90;;;;;;4978117;28;20054;-83
2022/08/07 09:00:50;;;;;;;0.30;0.30;;;22.10;99.90;;;;;;4977268;28;20053;-80
2022/08/07 09:03:25;;;;;;;0.38;0.38;;;22.90;99.90;;;;;;4988615;28;20908;-80
2022/08/07 09:05:58;;;;;;;0.30;0.30;;;23.00;99.90;;;;;;4979288;28;20054;-80
2022/08/07 09:08:37;;;;;;;0.30;0.30;;;23.20;99.90;;;;;;4973466;28;20054;-80
2022/08/07 09:11:49;;;;;;;0.30;0.30;;;23.10;99.90;;;;;;4969272;28;20112;-80
2022/08/07 09:14:27;;;;;;;0.22;0.22;;;23.20;99.90;;;;;;4991670;28;20749;-80
2022/08/07 09:17:08;;;;;;;0.30;0.30;;;23.00;99.90;;;;;;4971494;28;20050;-81
2022/08/07 09:19:48;;;;;;;0.30;0.30;;;23.40;99.90;;;;;;4976664;28;20056;-79
2022/08/07 09:22:27;;;;;;;0.30;0.30;;;23.70;99.90;;;;;;4956025;28;20750;-80
2022/08/07 09:25:23;;;;;;;0.20;0.20;;;23.80;99.90;;;;;;4987336;28;21232;-81
2022/08/07 09:28:05;;;;;;;0.30;0.30;;;24.00;99.90;;;;;;4982442;28;20046;-82
2022/08/07 09:30:43;;;;;;;0.30;0.30;;;24.10;99.90;;;;;;4976596;28;20078;-83
2022/08/07 09:34:05;;;;;;;0.20;0.20;;;24.20;99.90;;;;;;4974346;28;20046;-83
2022/08/07 09:36:59;;;;;;;0.20;0.20;;;24.20;99.90;;;;;;4970554;28;20234;-81
2022/08/07 09:40:13;;;;;;;0.30;0.30;;;23.80;99.90;;;;;;4975034;28;20068;-81
2022/08/07 09:42:55;;;;;;;0.30;0.30;;;23.90;99.90;;;;;;4964226;28;20136;-83
2022/08/07 09:45:51;;;;;;;0.30;0.30;;;24.10;99.90;;;;;;4984194;28;20709;-82
2022/08/07 09:48:23;;;;;;;0.30;0.30;;;24.10;99.90;;;;;;4978698;28;20042;-83
2022/08/07 09:51:15;;;;;;;0.30;0.30;;;24.00;99.90;;;;;;4975059;28;20069;-82
2022/08/07 09:53:44;;;;;;;0.30;0.30;;;24.20;99.90;;;;;;4957712;28;20791;-82
2022/08/07 09:56:31;;;;;;;0.30;0.30;;;24.00;99.90;;;;;;4973414;28;20685;-82
2022/08/07 09:59:32;;;;;;;0.20;0.20;;;24.80;99.90;;;;;;4973990;28;20050;-80
2022/08/07 10:02:16;;;;;;;0.20;0.20;;;25.00;99.90;;;;;;4970353;28;20497;-79
2022/08/07 10:04:47;;;;;;;0.30;0.30;;;25.40;99.90;;;;;;4970246;28;20050;-81
2022/08/07 10:07:52;;;;;;;0.20;0.20;;;25.40;98.50;;;;;;4974647;28;20061;-78
2022/08/07 10:10:27;;;;;;;0.20;0.20;;;25.40;99.00;;;;;;4973083;28;20058;-81
2022/08/07 10:13:26;;;;;;;0.20;0.20;;;25.10;98.50;;;;;;4972321;28;20065;-80
2022/08/07 10:16:03;;;;;;;0.20;0.20;;;25.30;99.90;;;;;;4969678;28;20541;-82
2022/08/07 10:18:32;;;;;;;0.30;0.30;;;25.70;99.40;;;;;;4972318;28;20078;-81
2022/08/07 10:21:24;;;;;;;0.30;0.30;;;25.70;99.00;;;;;;4972835;28;20056;-81
2022/08/07 10:24:08;;;;;;;0.20;0.20;;;26.00;98.50;;;;;;4965386;28;20085;-82
2022/08/07 10:26:58;;;;;;;0.20;0.20;;;26.20;99.10;;;;;;4974052;28;20203;-83
2022/08/07 10:30:05;;;;;;;0.20;0.20;;;26.00;98.20;;;;;;4962133;28;20124;-81
2022/08/07 10:33:06;;;;;;;0.22;0.22;;;25.90;98.20;;;;;;4973234;28;20065;-80
2022/08/07 10:36:13;;;;;;;0.20;0.20;;;26.50;98.30;;;;;;4976186;28;20034;-79
2022/08/07 10:38:48;;;;;;;0.45;0.30;;;26.60;97.80;;;;;;4969521;28;20046;-80
2022/08/07 10:41:35;;;;;;;0.30;0.30;;;26.50;96.40;;;;;;4986105;28;20058;-79
2022/08/07 10:44:10;;;;;;;0.30;0.30;;;26.20;95.40;;;;;;4971144;28;20049;-82
2022/08/07 10:47:23;;;;;;;0.20;0.20;;;26.50;95.70;;;;;;4957927;28;20148;-83
2022/08/07 10:50:25;;;;;;;0.20;0.20;;;26.90;96.60;;;;;;4950422;28;20614;-82
2022/08/07 10:53:08;;;;;;;0.20;0.20;;;26.80;95.30;;;;;;4959046;28;20042;-81
2022/08/07 10:55:46;;;;;;;0.20;0.20;;;25.90;94.50;;;;;;4972206;28;20049;-83
2022/08/07 10:58:27;;;;;;;0.20;0.20;;;25.00;96.00;;;;;;4981627;28;20061;-80
2022/08/07 11:01:17;;;;;;;0.20;0.20;;;24.70;94.70;;;;;;4976809;28;20062;-82
2022/08/07 11:04:15;;;;;;;0.20;0.20;;;24.00;96.40;;;;;;4974140;28;20085;-83
2022/08/07 11:07:00;;;;;;;0.30;0.30;;;24.50;97.50;;;;;;4971048;28;20568;-82
2022/08/07 11:09:33;;;;;;;0.30;0.30;;;25.10;97.00;;;;;;4970377;28;20065;-82
2022/08/07 11:12:12;;;;;;;0.30;0.30;;;25.40;96.90;;;;;;4973765;28;20113;-83
2022/08/07 11:15:01;;;;;;;0.30;0.30;;;25.60;95.80;;;;;;4967277;28;20112;-81
2022/08/07 11:17:37;;;;;;;0.20;0.20;;;26.10;94.90;;;;;;4974311;28;20125;-81
2022/08/07 11:20:29;;;;;;;0.20;0.20;;;25.90;95.40;;;;;;4971409;28;20073;-83
2022/08/07 11:23:13;;;;;;;0.20;0.20;;;25.70;96.10;;;;;;4973139;28;20054;-83
2022/08/07 11:26:27;;;;;;;0.20;0.20;;;26.20;95.40;;;;;;4973104;28;20054;-83
2022/08/07 11:29:13;;;;;;;0.30;0.30;;;26.50;95.80;;;;;;4949768;28;20066;-82
2022/08/07 11:35:08;;;;;;;0.30;0.30;;;27.10;94.10;;;;;;4967727;28;20064;-82
2022/08/07 11:37:58;;;;;;;0.20;0.20;;;26.80;94.40;;;;;;4971042;28;20082;-81
2022/08/07 11:40:42;;;;;;;0.20;0.20;;;27.10;94.10;;;;;;4974055;28;20124;-81
2022/08/07 11:43:20;;;;;;;0.30;0.30;;;27.30;94.80;;;;;;4972502;28;20793;-81
2022/08/07 11:46:18;;;;;;;0.30;0.30;;;27.40;93.10;;;;;;4972689;28;20053;-81
2022/08/07 11:48:53;;;;;;;0.25;0.25;;;27.30;91.90;;;;;;4959858;28;20058;-83
2022/08/07 11:51:28;;;;;;;0.20;0.20;;;27.10;93.50;;;;;;4971237;28;20077;-79
2022/08/07 11:54:13;;;;;;;0.22;0.22;;;27.30;93.10;;;;;;4973293;28;20064;-82
2022/08/07 11:57:23;;;;;;;0.20;0.20;;;27.60;91.10;;;;;;4966221;28;20090;-79
2022/08/07 12:00:04;;;;;;;0.30;0.30;;;27.20;91.10;;;;;;4962294;28;20056;-83
2022/08/07 12:02:58;;;;;;;0.20;0.20;;;26.90;92.70;;;;;;4972985;28;20057;-82
2022/08/07 12:05:43;;;;;;;0.30;0.30;;;27.30;92.90;;;;;;4973003;28;20046;-79
2022/08/07 12:08:47;;;;;;;0.20;0.20;;;27.40;91.50;;;;;;4973551;28;20180;-83
2022/08/07 12:11:26;;;;;;;0.30;0.30;;;27.40;92.70;;;;;;4897256;28;20055;-80
2022/08/07 12:14:08;;;;;;;0.20;0.20;;;27.70;91.60;;;;;;4974243;28;20067;-80
2022/08/07 12:16:45;;;;;;;0.20;0.20;;;27.80;91.60;;;;;;4952386;28;20050;-79
2022/08/07 12:19:34;;;;;;;0.25;0.25;;;27.80;91.30;;;;;;4982299;28;20418;-80
2022/08/07 12:22:13;;;;;;;0.20;0.20;;;27.60;90.70;;;;;;4928930;28;20408;-81
2022/08/07 12:27:52;;;;;;;0.20;0.20;;;27.40;90.40;;;;;;4970572;28;20050;-81
2022/08/07 12:30:22;;;;;;;0.20;0.20;;;27.40;90.70;;;;;;4974829;28;20054;-79
2022/08/07 12:33:00;;;;;;;0.20;0.20;;;27.70;91.10;;;;;;4965723;28;20046;-81
2022/08/07 12:35:29;;;;;;;0.20;0.20;;;27.50;90.40;;;;;;4964690;28;20050;-80
2022/08/07 12:37:57;;;;;;;0.20;0.20;;;27.20;83.50;;;;;;4965640;28;20050;-80
2022/08/07 12:40:27;;;;;;;0.20;0.20;;;27.30;89.90;;;;;;4956361;28;20058;-79
2022/08/07 12:42:56;;;;;;;0.20;0.20;;;27.70;89.70;;;;;;4962296;28;20062;-83
2022/08/07 12:45:26;;;;;;;0.20;0.20;;;27.70;86.90;;;;;;4980385;28;20046;-82
2022/08/07 12:48:02;;;;;;;0.20;0.20;;;27.70;88.80;;;;;;4974099;28;20084;-81
2022/08/07 12:50:44;;;;;;;0.20;0.20;;;27.70;86.00;;;;;;4963218;28;20497;-81
2022/08/07 12:53:17;;;;;;;0.20;0.20;;;27.90;87.90;;;;;;4970755;28;20742;-83
2022/08/07 12:55:50;;;;;;;0.20;0.20;;;28.10;89.30;;;;;;4980112;28;20675;-80
2022/08/07 12:58:18;;;;;;;0.20;0.20;;;28.10;88.30;;;;;;4967687;28;20497;-79
2022/08/07 13:01:03;;;;;;;0.20;0.20;;;28.10;88.10;;;;;;4970161;28;20508;-81
2022/08/07 13:04:10;;;;;;;0.20;0.20;;;27.60;87.60;;;;;;4971828;28;20373;-81
2022/08/07 13:06:52;;;;;;;0.20;0.20;;;27.60;88.10;;;;;;4964531;28;20057;-82
2022/08/07 13:09:37;;;;;;;0.20;0.20;;;26.70;88.90;;;;;;4971970;28;20061;-79
2022/08/07 13:12:52;;;;;;;0.20;0.20;;;27.60;89.30;;;;;;4969548;28;20722;-82
2022/08/07 13:15:45;;;;;;;0.20;0.20;;;27.20;91.20;;;;;;4958737;28;20137;-82
2022/08/07 13:18:26;;;;;;;0.30;0.30;;;26.60;88.70;;;;;;4969084;28;20501;-81
2022/08/07 13:21:01;;;;;;;0.20;0.20;;;26.20;89.80;;;;;;4972659;28;20057;-82
2022/08/07 13:23:44;;;;;;;0.28;0.28;;;25.80;90.50;;;;;;4965279;28;20057;-80
2022/08/07 13:26:16;;;;;;;0.22;0.22;;;25.20;90.00;;;;;;4964029;28;20046;-81
2022/08/07 13:29:01;;;;;;;0.30;0.30;;;24.80;90.90;;;;;;4970496;28;20057;-81
2022/08/07 13:31:38;;;;;;;0.20;0.20;;;25.50;91.10;;;;;;4973763;28;20050;-81
2022/08/07 13:34:21;;;;;;;0.20;0.20;;;25.20;88.90;;;;;;4978521;28;20132;-82
2022/08/07 13:36:53;;;;;;;0.20;0.20;;;26.10;90.10;;;;;;4977220;28;20128;-80